createdAt,value
2023-03-12T00:00:08.719Z,3.65
2023-03-12T00:02:36.059Z,6.07
2023-03-12T00:05:03.662Z,5.43
2023-03-12T00:07:30.820Z,6.80
2023-03-12T00:09:57.938Z,5.10
2023-03-12T00:12:25.077Z,5.05
2023-03-12T00:14:52.285Z,8.93
2023-03-12T00:17:19.436Z,6.07
2023-03-12T00:19:46.825Z,4.20
2023-03-12T00:22:16.624Z,7.00
2023-03-12T00:24:43.749Z,5.72
2023-03-12T00:27:10.944Z,8.75
2023-03-12T00:29:38.123Z,6.88
2023-03-12T00:32:05.533Z,6.38
2023-03-12T00:34:32.708Z,8.05
2023-03-12T00:36:59.845Z,7.95
2023-03-12T00:39:27.097Z,6.80
2023-03-12T00:41:54.233Z,6.93
2023-03-12T00:44:21.388Z,6.95
2023-03-12T00:46:48.589Z,6.68
2023-03-12T00:49:15.740Z,6.28
2023-03-12T00:51:42.864Z,5.22
2023-03-12T00:54:10.202Z,5.63
2023-03-12T00:56:37.375Z,6.18
2023-03-12T00:59:04.642Z,7.85
2023-03-12T01:01:32.014Z,6.35
2023-03-12T01:04:02.552Z,6.38
2023-03-12T01:06:29.739Z,6.68
2023-03-12T01:08:56.922Z,8.70
2023-03-12T01:11:25.104Z,6.82
2023-03-12T01:13:52.305Z,6.03
2023-03-12T01:16:19.840Z,6.32
2023-03-12T01:18:47.120Z,6.75
2023-03-12T01:21:14.335Z,5.75
2023-03-12T01:23:41.655Z,5.30
2023-03-12T01:26:08.912Z,8.65
2023-03-12T01:28:36.022Z,5.85
2023-03-12T01:31:10.106Z,6.57
2023-03-12T01:33:37.434Z,6.35
2023-03-12T01:36:05.375Z,9.02
2023-03-12T01:38:32.809Z,6.43
2023-03-12T01:40:59.878Z,5.40
2023-03-12T01:43:27.165Z,6.13
2023-03-12T01:45:59.265Z,7.05
2023-03-12T01:48:28.422Z,6.07
2023-03-12T01:50:55.903Z,7.45
2023-03-12T01:53:23.647Z,6.30
2023-03-12T01:55:51.104Z,7.85
2023-03-12T01:58:18.507Z,6.18
2023-03-12T02:00:45.875Z,5.85
2023-03-12T02:03:13.875Z,7.43
2023-03-12T02:05:44.169Z,7.72
2023-03-12T02:08:12.474Z,7.70
2023-03-12T02:10:41.053Z,7.30
2023-03-12T02:13:11.185Z,5.90
2023-03-12T02:15:44.170Z,7.82
2023-03-12T02:18:14.131Z,6.53
2023-03-12T02:20:57.026Z,7.32
2023-03-12T02:23:38.810Z,5.80
2023-03-12T02:26:06.376Z,9.90
2023-03-12T02:28:42.878Z,8.07
2023-03-12T02:31:13.253Z,7.43
2023-03-12T02:33:40.810Z,7.22
2023-03-12T02:36:09.116Z,6.35
2023-03-12T02:38:45.565Z,8.93
2023-03-12T02:41:14.961Z,8.32
2023-03-12T02:43:44.640Z,8.80
2023-03-12T02:46:12.066Z,8.55
2023-03-12T02:48:39.261Z,8.80
2023-03-12T02:51:06.448Z,8.93
2023-03-12T02:53:33.809Z,7.05
2023-03-12T02:56:01.289Z,9.98
2023-03-12T02:58:29.266Z,9.73
2023-03-12T03:00:56.484Z,8.63
2023-03-12T03:03:23.697Z,9.32
2023-03-12T03:05:51.812Z,10.93
2023-03-12T03:08:18.986Z,7.07
2023-03-12T03:10:46.238Z,7.88
2023-03-12T03:13:13.630Z,10.25
2023-03-12T03:15:41.270Z,8.85
2023-03-12T03:18:08.459Z,9.30
2023-03-12T03:20:35.922Z,8.02
2023-03-12T03:23:03.308Z,6.60
2023-03-12T03:25:30.749Z,9.60
2023-03-12T03:28:04.272Z,9.55
2023-03-12T03:30:31.571Z,7.93
2023-03-12T03:32:58.784Z,7.78
2023-03-12T03:35:26.285Z,10.65
2023-03-12T03:37:53.846Z,8.57
2023-03-12T03:40:21.356Z,7.78
2023-03-12T03:42:48.908Z,10.98
2023-03-12T03:45:16.360Z,8.43
2023-03-12T03:47:44.808Z,7.43
2023-03-12T03:50:12.969Z,11.55
2023-03-12T03:52:40.229Z,9.40
2023-03-12T03:55:07.887Z,11.52
2023-03-12T03:57:35.038Z,8.70
2023-03-12T04:00:03.784Z,7.28
2023-03-12T04:02:40.912Z,7.47
2023-03-12T04:05:10.745Z,6.40
2023-03-12T04:07:38.253Z,8.48
2023-03-12T04:10:06.282Z,10.43
2023-03-12T04:12:33.547Z,11.13
2023-03-12T04:15:01.136Z,12.13
2023-03-12T04:17:28.631Z,8.25
2023-03-12T04:19:57.123Z,8.50
2023-03-12T04:22:26.161Z,7.13
2023-03-12T04:24:53.351Z,8.40
2023-03-12T04:27:20.627Z,13.15
2023-03-12T04:29:48.073Z,8.73
2023-03-12T04:32:16.307Z,5.97
2023-03-12T04:34:43.833Z,6.30
2023-03-12T04:37:16.319Z,6.78
2023-03-12T04:39:44.330Z,8.93
2023-03-12T04:42:12.332Z,7.88
2023-03-12T04:44:41.778Z,6.40
2023-03-12T04:47:09.519Z,6.50
2023-03-12T04:49:38.500Z,7.90
2023-03-12T04:52:05.945Z,5.30
2023-03-12T04:54:33.543Z,7.68
2023-03-12T04:57:01.482Z,8.48
2023-03-12T04:59:29.101Z,8.90
2023-03-12T05:01:56.273Z,5.72
2023-03-12T05:04:27.624Z,9.32
2023-03-12T05:06:55.783Z,7.53
2023-03-12T05:09:23.000Z,6.72
2023-03-12T05:11:50.419Z,7.00
2023-03-12T05:14:20.666Z,8.25
2023-03-12T05:16:48.873Z,8.60
2023-03-12T05:19:16.289Z,8.23
2023-03-12T05:21:43.900Z,7.10
2023-03-12T05:24:12.164Z,8.73
2023-03-12T05:26:39.705Z,7.43
2023-03-12T05:29:13.133Z,8.02
2023-03-12T05:31:40.777Z,7.22
2023-03-12T05:34:09.156Z,6.75
2023-03-12T05:36:39.438Z,10.35
2023-03-12T05:39:07.210Z,8.82
2023-03-12T05:41:35.356Z,10.45
2023-03-12T05:44:20.656Z,8.93
2023-03-12T05:46:52.452Z,8.00
2023-03-12T05:49:20.055Z,6.90
2023-03-12T05:51:48.263Z,9.15
2023-03-12T05:54:16.501Z,9.90
2023-03-12T05:56:44.066Z,8.20
2023-03-12T05:59:11.663Z,9.65
2023-03-12T06:01:40.991Z,13.05
2023-03-12T06:04:08.277Z,10.55
2023-03-12T06:06:36.368Z,11.02
2023-03-12T06:09:05.608Z,8.50
2023-03-12T06:11:34.021Z,9.95
2023-03-12T06:14:01.159Z,9.60
2023-03-12T06:16:29.621Z,8.68
2023-03-12T06:19:01.062Z,8.75
2023-03-12T06:21:29.882Z,9.55
2023-03-12T06:23:58.334Z,9.77
2023-03-12T06:26:30.344Z,8.88
2023-03-12T06:28:57.874Z,9.60
2023-03-12T06:31:25.148Z,9.20
2023-03-12T06:33:53.975Z,9.00
2023-03-12T06:36:23.272Z,7.32
2023-03-12T06:38:50.609Z,10.10
2023-03-12T06:41:18.527Z,9.35
2023-03-12T06:43:46.170Z,9.73
2023-03-12T06:46:15.023Z,10.18
2023-03-12T06:48:42.427Z,11.30
2023-03-12T06:51:10.715Z,9.98
2023-03-12T06:53:40.407Z,9.13
2023-03-12T06:56:09.379Z,8.13
2023-03-12T06:58:36.842Z,8.95
2023-03-12T07:01:04.344Z,8.55
2023-03-12T07:03:31.621Z,9.57
2023-03-12T07:05:59.470Z,9.52
2023-03-12T07:08:29.704Z,10.15
2023-03-12T07:10:57.379Z,10.57
2023-03-12T07:13:25.526Z,8.43
2023-03-12T07:15:52.688Z,8.05
2023-03-12T07:18:19.819Z,9.95
2023-03-12T07:20:47.542Z,8.35
2023-03-12T07:23:15.021Z,7.07
2023-03-12T07:25:43.410Z,9.05
2023-03-12T07:28:11.502Z,9.68
2023-03-12T07:30:38.972Z,9.70
2023-03-12T07:33:10.345Z,7.45
2023-03-12T07:35:41.353Z,6.90
2023-03-12T07:38:08.931Z,10.07
2023-03-12T07:40:36.761Z,7.55
2023-03-12T07:43:06.860Z,8.40
2023-03-12T07:45:36.282Z,9.82
2023-03-12T07:48:03.719Z,9.75
2023-03-12T07:50:30.900Z,8.15
2023-03-12T07:52:58.020Z,7.05
2023-03-12T07:55:25.217Z,8.57
2023-03-12T07:57:53.633Z,10.27
2023-03-12T08:00:20.983Z,7.78
2023-03-12T08:02:48.491Z,10.25
2023-03-12T08:05:15.700Z,7.43
2023-03-12T08:07:42.826Z,8.95
2023-03-12T08:10:10.336Z,8.15
2023-03-12T08:12:37.594Z,10.50
2023-03-12T08:15:08.923Z,9.55
2023-03-12T08:17:36.245Z,10.60
2023-03-12T08:20:03.907Z,8.10
2023-03-12T08:22:30.980Z,9.43
2023-03-12T08:24:58.060Z,6.22
2023-03-12T08:27:25.176Z,5.55
2023-03-12T08:29:52.284Z,8.48
2023-03-12T08:32:19.454Z,7.80
2023-03-12T08:34:46.636Z,8.55
2023-03-12T08:37:13.913Z,7.07
2023-03-12T08:39:41.530Z,8.25
2023-03-12T08:42:08.706Z,15.35
2023-03-12T08:44:35.913Z,8.30
2023-03-12T08:47:03.103Z,7.85
2023-03-12T08:49:30.242Z,9.02
2023-03-12T08:51:57.368Z,7.60
2023-03-12T08:54:24.472Z,9.90
2023-03-12T08:56:52.444Z,9.50
2023-03-12T08:59:23.495Z,8.32
2023-03-12T09:01:51.025Z,7.53
2023-03-12T09:04:18.268Z,7.78
2023-03-12T09:06:45.464Z,8.40
2023-03-12T09:09:12.689Z,7.30
2023-03-12T09:11:40.856Z,8.45
2023-03-12T09:15:16.459Z,9.65
2023-03-12T09:16:55.425Z,8.38
2023-03-12T09:19:22.629Z,8.10
2023-03-12T09:21:49.695Z,8.00
2023-03-12T09:24:17.500Z,8.25
2023-03-12T09:26:44.570Z,8.43
2023-03-12T09:29:11.718Z,11.05
2023-03-12T09:31:39.074Z,10.65
2023-03-12T09:34:06.578Z,6.80
2023-03-12T09:36:34.287Z,12.10
2023-03-12T09:39:02.364Z,9.88
2023-03-12T09:41:34.917Z,7.07
2023-03-12T09:46:36.481Z,8.68
2023-03-12T09:49:06.369Z,10.32
2023-03-12T09:51:38.789Z,9.68
2023-03-12T09:54:07.675Z,9.95
2023-03-12T09:56:35.535Z,9.32
2023-03-12T09:59:02.817Z,10.95
2023-03-12T10:01:42.334Z,10.23
2023-03-12T10:04:12.279Z,11.57
2023-03-12T10:06:42.420Z,18.85
2023-03-12T10:09:28.165Z,10.18
2023-03-12T10:12:07.525Z,9.55
2023-03-12T10:14:53.077Z,13.55
2023-03-12T10:17:23.324Z,12.32
2023-03-12T10:20:17.000Z,14.43
2023-03-12T10:22:50.457Z,10.45
2023-03-12T10:25:40.749Z,11.00
2023-03-12T10:28:14.114Z,11.23
2023-03-12T10:30:43.191Z,10.98
2023-03-12T10:33:14.162Z,12.55
2023-03-12T10:35:41.437Z,17.05
2023-03-12T10:38:13.772Z,13.75
2023-03-12T10:40:41.342Z,13.57
2023-03-12T10:43:09.820Z,12.93
2023-03-12T10:46:06.314Z,16.50
2023-03-12T10:48:33.478Z,13.18
2023-03-12T10:51:10.601Z,13.18
2023-03-12T10:53:39.805Z,12.48
2023-03-12T10:56:10.031Z,13.52
2023-03-12T10:58:40.808Z,14.82
2023-03-12T11:01:17.998Z,14.30
2023-03-12T11:03:48.455Z,16.58
2023-03-12T11:06:23.052Z,16.80
2023-03-12T11:09:16.623Z,17.85
2023-03-12T11:11:47.294Z,18.67
2023-03-12T11:14:14.413Z,16.02
2023-03-12T11:16:41.618Z,16.10
2023-03-12T11:19:13.093Z,15.73
2023-03-12T11:21:40.616Z,15.60
2023-03-12T11:24:12.425Z,20.92
2023-03-12T11:27:03.139Z,18.88
2023-03-12T11:29:33.123Z,20.92
2023-03-12T11:32:17.772Z,19.17
2023-03-12T11:34:49.610Z,21.95
2023-03-12T11:37:16.857Z,23.27
2023-03-12T11:39:49.060Z,20.50
2023-03-12T11:42:34.843Z,18.23
2023-03-12T11:45:08.842Z,21.23
2023-03-12T11:47:42.244Z,23.55
2023-03-12T11:50:21.602Z,19.13
2023-03-12T11:52:55.120Z,19.52
2023-03-12T11:55:28.475Z,22.13
2023-03-12T11:58:13.682Z,22.35
2023-03-12T12:00:47.979Z,21.98
2023-03-12T12:03:18.345Z,20.35
2023-03-12T12:05:49.854Z,22.42
2023-03-12T12:08:40.284Z,24.10
2023-03-12T12:11:17.243Z,24.92
2023-03-12T12:13:44.380Z,26.52
2023-03-12T12:16:20.399Z,24.23
2023-03-12T12:18:50.505Z,27.08
2023-03-12T12:21:37.026Z,29.92
2023-03-12T12:24:18.329Z,30.50
2023-03-12T12:26:57.682Z,31.25
2023-03-12T12:29:30.591Z,32.92
2023-03-12T12:31:58.528Z,27.75
2023-03-12T12:34:46.074Z,29.45
2023-03-12T12:37:31.812Z,30.63
2023-03-12T12:40:08.239Z,32.13
2023-03-12T12:42:37.437Z,34.90
2023-03-12T12:45:05.012Z,27.92
2023-03-12T12:47:40.941Z,32.80
2023-03-12T12:50:08.371Z,32.55
2023-03-12T12:52:35.713Z,29.60
2023-03-12T12:55:09.797Z,32.85
2023-03-12T12:57:42.839Z,31.77
2023-03-12T13:00:45.769Z,32.78
2023-03-12T13:03:15.380Z,32.38
2023-03-12T13:05:50.249Z,33.97
2023-03-12T13:08:34.580Z,39.17
2023-03-12T13:11:16.639Z,37.83
2023-03-12T13:13:46.668Z,33.92
2023-03-12T13:16:28.773Z,33.13
2023-03-12T13:18:56.857Z,36.45
2023-03-12T13:21:27.357Z,37.72
2023-03-12T13:24:20.546Z,39.38
2023-03-12T13:26:51.667Z,37.72
2023-03-12T13:29:24.898Z,38.20
2023-03-12T13:31:51.983Z,42.10
2023-03-12T13:34:19.148Z,38.03
2023-03-12T13:36:47.505Z,39.10
2023-03-12T13:39:17.407Z,37.85
2023-03-12T13:41:47.415Z,41.80
2023-03-12T13:44:23.679Z,46.55
2023-03-12T13:47:09.555Z,40.75
2023-03-12T13:49:44.408Z,47.00
2023-03-12T13:52:14.385Z,49.83
2023-03-12T13:54:43.981Z,47.72
2023-03-12T13:57:12.671Z,44.95
2023-03-12T13:59:44.647Z,42.58
2023-03-12T14:02:30.931Z,48.88
2023-03-12T14:05:11.442Z,49.78
2023-03-12T14:07:47.828Z,51.80
2023-03-12T14:10:14.936Z,44.08
2023-03-12T14:13:11.375Z,45.17
2023-03-12T14:15:57.414Z,50.97
2023-03-12T14:18:26.525Z,52.92
2023-03-12T14:20:58.541Z,53.80
2023-03-12T14:23:27.423Z,44.67
2023-03-12T14:25:57.785Z,51.20
2023-03-12T14:28:25.127Z,47.75
2023-03-12T14:30:55.389Z,41.17
2023-03-12T14:33:22.791Z,43.75
2023-03-12T14:35:54.293Z,38.28
2023-03-12T14:38:32.647Z,41.35
2023-03-12T14:41:02.469Z,49.65
2023-03-12T14:43:34.953Z,40.40
2023-03-12T14:46:03.684Z,36.65
2023-03-12T14:48:39.186Z,46.95
2023-03-12T14:51:07.378Z,45.33
2023-03-12T14:53:35.829Z,39.97
2023-03-12T14:56:08.812Z,34.45
2023-03-12T14:58:36.834Z,32.00
2023-03-12T15:01:08.311Z,30.98
2023-03-12T15:03:41.572Z,39.50
2023-03-12T15:06:24.736Z,41.13
2023-03-12T15:08:51.907Z,40.53
2023-03-12T15:11:23.961Z,33.42
2023-03-12T15:13:51.730Z,37.88
2023-03-12T15:16:20.053Z,30.23
2023-03-12T15:18:49.156Z,38.08
2023-03-12T15:21:16.650Z,27.90
2023-03-12T15:23:45.895Z,31.33
2023-03-12T15:26:27.004Z,31.50
2023-03-12T15:29:00.039Z,24.05
2023-03-12T15:31:27.610Z,29.92
2023-03-12T15:34:02.449Z,28.00
2023-03-12T15:36:31.287Z,33.88
2023-03-12T15:39:13.525Z,30.90
2023-03-12T15:41:45.465Z,28.27
2023-03-12T15:44:20.375Z,33.17
2023-03-12T15:47:03.486Z,33.92
2023-03-12T15:49:31.913Z,30.48
2023-03-12T15:52:19.362Z,28.15
2023-03-12T15:55:07.448Z,43.10
2023-03-12T15:57:35.223Z,29.33
2023-03-12T16:00:14.280Z,30.65
2023-03-12T16:03:00.561Z,38.45
2023-03-12T16:05:30.119Z,25.05
2023-03-12T16:07:58.047Z,30.63
2023-03-12T16:10:27.040Z,33.40
2023-03-12T16:13:00.472Z,32.08
2023-03-12T16:15:30.337Z,26.15
2023-03-12T16:17:57.417Z,34.35
2023-03-12T16:20:24.559Z,26.13
2023-03-12T16:22:51.632Z,23.10
2023-03-12T16:25:18.919Z,29.55
2023-03-12T16:27:53.907Z,25.85
2023-03-12T16:30:23.310Z,30.63
2023-03-12T16:32:50.566Z,26.15
2023-03-12T16:35:18.747Z,28.05
2023-03-12T16:37:46.528Z,32.15
2023-03-12T16:40:23.978Z,32.22
2023-03-12T16:43:02.654Z,33.30
2023-03-12T16:45:30.401Z,45.75
2023-03-12T16:48:02.145Z,34.08
2023-03-12T16:50:29.344Z,28.57
2023-03-12T16:52:56.649Z,25.60
2023-03-12T16:55:27.871Z,30.88
2023-03-12T16:57:56.901Z,25.85
2023-03-12T17:00:25.580Z,28.45
2023-03-12T17:02:57.723Z,31.15
2023-03-12T17:05:25.740Z,21.92
2023-03-12T17:07:52.948Z,24.30
2023-03-12T17:10:20.136Z,38.05
2023-03-12T17:12:48.496Z,26.67
2023-03-12T17:15:23.671Z,33.42
2023-03-12T17:17:50.845Z,25.15
2023-03-12T17:20:19.164Z,27.48
2023-03-12T17:22:46.465Z,30.33
2023-03-12T17:25:21.979Z,24.05
2023-03-12T17:27:49.187Z,21.88
2023-03-12T17:30:16.531Z,32.92
2023-03-12T17:32:43.724Z,33.97
2023-03-12T17:35:10.933Z,28.08
2023-03-12T17:37:38.019Z,28.67
2023-03-12T17:40:08.256Z,24.38
2023-03-12T17:42:36.301Z,28.90
2023-03-12T17:45:04.017Z,27.83
2023-03-12T17:47:31.229Z,36.10
2023-03-12T17:49:58.347Z,26.05
2023-03-12T17:52:25.587Z,33.08
2023-03-12T17:54:52.674Z,30.35
2023-03-12T17:57:19.736Z,27.55
2023-03-12T17:59:49.969Z,30.38
2023-03-12T18:02:17.271Z,25.85
2023-03-12T18:04:44.509Z,23.38
2023-03-12T18:07:12.532Z,28.60
2023-03-12T18:09:39.678Z,19.90
2023-03-12T18:12:07.025Z,25.27
2023-03-12T18:14:34.252Z,21.52
2023-03-12T18:17:01.385Z,20.60
2023-03-12T18:19:29.384Z,23.70
2023-03-12T18:21:56.518Z,25.45
2023-03-12T18:24:23.629Z,22.25
2023-03-12T18:26:52.164Z,24.23
2023-03-12T18:29:19.271Z,20.30
2023-03-12T18:31:46.394Z,24.92
2023-03-12T18:34:13.571Z,28.35
2023-03-12T18:36:40.776Z,24.73
2023-03-12T18:39:09.655Z,23.45
2023-03-12T18:41:36.908Z,27.08
2023-03-12T18:44:04.145Z,26.35
2023-03-12T18:46:31.388Z,23.63
2023-03-12T18:49:04.009Z,28.65
2023-03-12T18:53:58.213Z,24.48
2023-03-12T18:56:25.295Z,26.58
2023-03-12T18:58:52.460Z,24.42
2023-03-12T19:01:19.642Z,21.65
2023-03-12T19:03:47.123Z,26.58
2023-03-12T19:06:15.858Z,34.95
2023-03-12T19:08:43.453Z,27.05
2023-03-12T19:11:12.100Z,24.20
2023-03-12T19:13:39.588Z,22.60
2023-03-12T19:16:10.746Z,27.15
2023-03-12T19:18:38.671Z,21.48
2023-03-12T19:21:07.677Z,32.25
2023-03-12T19:23:35.698Z,19.52
2023-03-12T19:26:03.074Z,28.52
2023-03-12T19:28:32.035Z,27.70
2023-03-12T19:31:00.072Z,27.95
2023-03-12T19:33:28.356Z,29.27
2023-03-12T19:35:55.721Z,24.05
2023-03-12T19:38:23.036Z,21.08
2023-03-12T19:40:50.883Z,28.48
2023-03-12T19:43:18.221Z,31.42
2023-03-12T19:45:45.432Z,22.20
2023-03-12T19:48:13.503Z,26.85
2023-03-12T19:50:40.653Z,27.67
2023-03-12T19:53:07.839Z,22.63
2023-03-12T19:55:35.003Z,21.10
2023-03-12T19:58:02.281Z,22.35
2023-03-12T20:00:29.864Z,20.92
2023-03-12T20:02:57.333Z,21.05
2023-03-12T20:05:24.728Z,25.20
2023-03-12T20:07:52.188Z,20.10
2023-03-12T20:10:19.376Z,19.40
2023-03-12T20:12:46.822Z,24.67
2023-03-12T20:15:14.040Z,20.58
2023-03-12T20:17:41.140Z,18.35
2023-03-12T20:20:09.086Z,15.82
2023-03-12T20:22:36.356Z,21.20
2023-03-12T20:25:04.396Z,17.20
2023-03-12T20:27:31.706Z,14.10
2023-03-12T20:29:58.940Z,17.27
2023-03-12T20:32:26.162Z,11.07
2023-03-12T20:34:53.244Z,16.98
2023-03-12T20:37:20.439Z,15.50
2023-03-12T20:39:47.559Z,25.27
2023-03-12T20:42:14.720Z,17.05
2023-03-12T20:44:41.958Z,18.15
2023-03-12T20:47:09.108Z,22.30
2023-03-12T20:49:36.151Z,14.55
2023-03-12T20:52:03.432Z,16.23
2023-03-12T20:54:30.622Z,16.63
2023-03-12T20:56:58.718Z,22.00
2023-03-12T20:59:26.025Z,17.08
2023-03-12T21:01:53.158Z,15.02
2023-03-12T21:04:20.348Z,13.48
2023-03-12T21:06:47.738Z,10.27
2023-03-12T21:09:15.007Z,13.57
2023-03-12T21:11:42.153Z,12.95
2023-03-12T21:14:09.331Z,9.40
2023-03-12T21:16:36.930Z,6.93
2023-03-12T21:19:04.091Z,14.90
2023-03-12T21:21:32.123Z,12.57
2023-03-12T21:23:59.217Z,15.25
2023-03-12T21:26:26.460Z,15.18
2023-03-12T21:28:53.595Z,11.90
2023-03-12T21:31:21.036Z,19.45
2023-03-12T21:33:49.218Z,17.33
2023-03-12T21:36:16.715Z,19.08
2023-03-12T21:38:43.856Z,19.67
2023-03-12T21:41:12.708Z,21.45
2023-03-12T21:43:40.504Z,23.98
2023-03-12T21:46:08.522Z,29.27
2023-03-12T21:48:36.260Z,30.23
2023-03-12T21:51:04.821Z,31.15
2023-03-12T21:53:32.251Z,36.92
2023-03-12T21:56:00.110Z,29.95
2023-03-12T21:58:27.592Z,42.75
2023-03-12T22:01:24.106Z,33.28
2023-03-12T22:03:51.375Z,32.67
2023-03-12T22:06:18.721Z,42.42
2023-03-12T22:08:49.789Z,34.38
2023-03-12T22:11:17.095Z,29.20
2023-03-12T22:13:44.527Z,31.38
2023-03-12T22:16:12.503Z,32.63
2023-03-12T22:18:43.990Z,33.60
2023-03-12T22:21:18.279Z,33.25
2023-03-12T22:23:47.889Z,34.38
2023-03-12T22:26:15.437Z,28.83
2023-03-12T22:28:42.660Z,31.17
2023-03-12T22:31:10.627Z,38.90
2023-03-12T22:33:38.131Z,26.83
2023-03-12T22:36:08.842Z,33.55
2023-03-12T22:38:36.677Z,27.50
2023-03-12T22:41:17.103Z,28.80
2023-03-12T22:43:44.830Z,26.55
2023-03-12T22:46:12.171Z,30.02
2023-03-12T22:48:39.394Z,25.08
2023-03-12T22:51:06.619Z,29.73
2023-03-12T22:53:34.172Z,27.73
2023-03-12T22:56:02.450Z,25.52
2023-03-12T22:58:29.701Z,32.65
2023-03-12T23:01:09.467Z,30.85
2023-03-12T23:03:42.044Z,20.38
2023-03-12T23:06:10.416Z,25.65
2023-03-12T23:08:37.965Z,23.25
2023-03-12T23:11:06.072Z,30.45
2023-03-12T23:13:35.752Z,26.10
2023-03-12T23:16:05.419Z,31.80
2023-03-12T23:18:32.768Z,26.50
2023-03-12T23:21:04.510Z,25.75
2023-03-12T23:23:31.999Z,30.43
2023-03-12T23:26:00.198Z,26.23
2023-03-12T23:28:27.654Z,25.95
2023-03-12T23:30:55.803Z,35.47
2023-03-12T23:33:23.063Z,35.22
2023-03-12T23:36:00.029Z,22.85
2023-03-12T23:38:27.876Z,25.77
2023-03-12T23:40:59.353Z,21.92
2023-03-12T23:43:26.437Z,23.45
2023-03-12T23:46:00.254Z,21.52
2023-03-12T23:48:28.828Z,27.90
2023-03-12T23:50:56.004Z,17.73
2023-03-12T23:53:23.144Z,19.10
2023-03-12T23:55:57.278Z,24.17
2023-03-12T23:58:25.131Z,25.13
